Time;durP1;ratioP1;P1;durP2;ratioP2;P2;SDS_P1;SDS_P2;PMS_P1;PMS_P2;Temp;Humidity;BMP_temperature;BMP_pressure;BME280_temperature;BME280_humidity;BME280_pressure;Samples;Min_cycle;Max_cycle;Signal;HPM_P1;HPM_P2
2022/07/24 00:01:36;;;;;;;27.80;25.77;;;20.80;99.90;;;;;;4999354;28;20234;-73
2022/07/24 00:04:03;;;;;;;25.67;23.45;;;20.80;99.90;;;;;;5017337;28;20208;-73
2022/07/24 00:06:29;;;;;;;32.25;29.90;;;20.70;99.90;;;;;;5017585;28;20186;-73
2022/07/24 00:08:55;;;;;;;166.50;156.35;;;20.60;99.90;;;;;;5016413;28;20218;-73
2022/07/24 00:11:21;;;;;;;181.73;171.13;;;20.50;99.90;;;;;;5016649;28;20219;-73
2022/07/24 00:13:47;;;;;;;196.60;184.88;;;20.50;99.90;;;;;;4999244;28;20209;-73
2022/07/24 00:16:12;;;;;;;309.55;291.48;;;20.40;99.90;;;;;;5017180;28;20203;-73
2022/07/24 00:18:38;;;;;;;354.52;334.17;;;20.30;99.90;;;;;;5016346;28;20191;-72
2022/07/24 00:21:05;;;;;;;417.98;393.77;;;20.30;99.90;;;;;;4999797;28;20182;-73
2022/07/24 00:23:30;;;;;;;388.50;366.77;;;20.30;99.90;;;;;;4998949;28;20691;-73
2022/07/24 00:25:56;;;;;;;348.77;329.98;;;20.20;99.90;;;;;;5017306;28;20195;-73
2022/07/24 00:28:22;;;;;;;310.55;293.92;;;20.20;99.90;;;;;;5016064;28;20616;-72
2022/07/24 00:30:48;;;;;;;275.63;261.08;;;20.10;99.90;;;;;;5015638;28;20267;-73
2022/07/24 00:33:14;;;;;;;267.38;253.82;;;20.10;99.90;;;;;;5013354;28;20207;-73
2022/07/24 00:35:40;;;;;;;178.20;168.95;;;20.00;99.90;;;;;;5014087;28;20593;-73
2022/07/24 00:38:06;;;;;;;139.43;131.98;;;20.00;99.90;;;;;;4995620;28;20176;-73
2022/07/24 00:40:32;;;;;;;52.20;48.88;;;20.00;99.90;;;;;;4996455;28;20180;-73
2022/07/24 00:42:58;;;;;;;41.67;39.08;;;20.00;99.90;;;;;;5013480;28;20187;-73
2022/07/24 00:45:24;;;;;;;43.30;40.45;;;20.00;99.90;;;;;;5013684;28;20258;-72
2022/07/24 00:47:50;;;;;;;30.05;27.60;;;19.90;99.90;;;;;;5012582;28;20190;-72
2022/07/24 00:50:16;;;;;;;54.50;51.00;;;20.00;99.90;;;;;;4996146;28;20180;-72
2022/07/24 00:52:44;;;;;;;81.63;76.93;;;19.90;99.90;;;;;;5013215;28;20198;-74
2022/07/24 00:55:10;;;;;;;48.45;45.45;;;19.90;99.90;;;;;;4996045;28;20322;-72
2022/07/24 00:57:36;;;;;;;86.90;81.72;;;19.80;99.90;;;;;;4995501;28;20653;-72
2022/07/24 01:00:06;;;;;;;109.57;103.13;;;19.80;99.90;;;;;;4996297;28;20287;-73
2022/07/24 01:02:33;;;;;;;111.40;104.63;;;19.80;99.90;;;;;;4996340;28;20180;-72
2022/07/24 01:04:59;;;;;;;107.35;100.95;;;19.80;99.90;;;;;;5013766;28;20202;-72
2022/07/24 01:07:24;;;;;;;119.03;112.40;;;19.80;99.90;;;;;;5012674;28;20179;-72
2022/07/24 01:09:51;;;;;;;127.53;120.18;;;19.60;99.90;;;;;;4996235;28;20580;-72
2022/07/24 01:12:17;;;;;;;111.38;104.88;;;19.60;99.90;;;;;;5012823;28;20180;-72
2022/07/24 01:14:44;;;;;;;128.98;121.80;;;19.60;99.90;;;;;;5013271;28;20687;-72
2022/07/24 01:17:10;;;;;;;105.78;99.78;;;19.60;99.90;;;;;;5012805;28;20180;-73
2022/07/24 01:19:36;;;;;;;88.70;83.75;;;19.60;99.90;;;;;;4995851;28;20187;-72
2022/07/24 01:22:02;;;;;;;70.60;66.28;;;19.50;99.90;;;;;;5013680;28;20179;-72
2022/07/24 01:24:28;;;;;;;120.97;114.35;;;19.40;99.90;;;;;;5000034;28;20192;-72
2022/07/24 01:26:53;;;;;;;66.53;62.63;;;19.40;99.90;;;;;;4996860;28;20195;-72
2022/07/24 01:29:20;;;;;;;54.22;51.03;;;19.40;99.90;;;;;;5012521;28;20190;-72
2022/07/24 01:31:46;;;;;;;53.67;50.10;;;19.30;99.90;;;;;;4995561;28;20632;-72
2022/07/24 01:34:12;;;;;;;59.67;55.97;;;19.30;99.90;;;;;;4995802;28;20212;-72
2022/07/24 01:36:37;;;;;;;48.28;45.22;;;19.20;99.90;;;;;;5012967;28;20215;-72
2022/07/24 01:39:03;;;;;;;44.92;41.92;;;19.20;99.90;;;;;;5012056;28;20178;-73
2022/07/24 01:41:29;;;;;;;36.47;34.03;;;19.20;99.90;;;;;;4995534;28;20183;-72
2022/07/24 01:43:55;;;;;;;33.50;31.30;;;19.20;99.90;;;;;;5012608;28;20200;-73
2022/07/24 01:46:21;;;;;;;32.72;30.35;;;19.20;99.90;;;;;;5012939;28;20187;-72
2022/07/24 01:48:46;;;;;;;34.15;31.73;;;19.20;99.90;;;;;;5011923;28;20180;-73
2022/07/24 01:51:12;;;;;;;32.50;30.30;;;19.20;99.90;;;;;;5013369;28;20672;-73
2022/07/24 01:53:38;;;;;;;36.50;34.03;;;19.20;99.90;;;;;;4994675;28;20206;-73
2022/07/24 01:56:04;;;;;;;36.47;33.75;;;19.20;99.90;;;;;;4995323;28;20213;-72
2022/07/24 01:58:30;;;;;;;40.70;38.08;;;19.10;99.90;;;;;;5011773;28;20179;-73
2022/07/24 02:00:56;;;;;;;44.57;41.50;;;19.00;99.90;;;;;;5012688;28;20179;-72
2022/07/24 02:03:21;;;;;;;59.80;56.17;;;19.00;99.90;;;;;;5012381;28;20180;-72
2022/07/24 02:05:47;;;;;;;50.67;47.13;;;18.90;99.90;;;;;;5012619;28;20180;-72
2022/07/24 02:08:13;;;;;;;47.53;44.13;;;18.90;99.90;;;;;;4993906;28;20186;-73
2022/07/24 02:10:39;;;;;;;54.07;50.50;;;18.90;99.90;;;;;;4994014;28;20616;-72
2022/07/24 02:13:05;;;;;;;76.18;71.63;;;18.90;99.90;;;;;;5012140;28;20645;-73
2022/07/24 02:15:31;;;;;;;86.25;80.75;;;18.80;99.90;;;;;;5012348;28;20265;-73
2022/07/24 02:18:01;;;;;;;97.70;91.63;;;18.80;99.90;;;;;;5011491;28;20636;-73
2022/07/24 02:20:28;;;;;;;113.05;106.72;;;18.80;99.90;;;;;;5012104;28;20183;-72
2022/07/24 02:22:54;;;;;;;135.18;127.43;;;18.80;99.90;;;;;;5012387;28;20236;-72
2022/07/24 02:25:20;;;;;;;145.80;137.30;;;18.70;99.90;;;;;;4994611;28;20204;-72
2022/07/24 02:27:46;;;;;;;158.15;149.32;;;18.60;99.90;;;;;;4993821;28;20206;-73
2022/07/24 02:30:15;;;;;;;109.53;103.27;;;18.40;99.90;;;;;;4993841;28;20652;-73
2022/07/24 02:32:41;;;;;;;52.37;48.83;;;18.40;99.90;;;;;;4994857;28;20562;-73
2022/07/24 02:35:08;;;;;;;44.37;41.33;;;18.30;99.90;;;;;;5012115;28;20207;-73
2022/07/24 02:37:39;;;;;;;46.67;43.47;;;18.40;99.90;;;;;;4993747;28;20198;-73
2022/07/24 02:40:07;;;;;;;28.48;26.27;;;18.60;99.90;;;;;;5011581;28;20187;-72
2022/07/24 02:42:33;;;;;;;26.93;25.03;;;18.60;99.90;;;;;;5011909;28;20186;-72
2022/07/24 02:44:59;;;;;;;20.63;18.57;;;18.70;99.90;;;;;;5011889;28;20200;-73
2022/07/24 02:47:25;;;;;;;33.47;30.97;;;18.60;99.90;;;;;;5010772;28;20179;-72
2022/07/24 02:49:50;;;;;;;44.57;41.70;;;18.60;99.90;;;;;;5011795;28;20180;-73
2022/07/24 02:52:16;;;;;;;37.47;34.60;;;18.50;99.90;;;;;;5011684;28;20262;-72
2022/07/24 02:54:42;;;;;;;26.23;24.17;;;18.50;99.90;;;;;;5010984;28;20243;-72
2022/07/24 02:57:08;;;;;;;26.83;24.83;;;18.50;99.90;;;;;;5010662;28;20210;-72
2022/07/24 02:59:33;;;;;;;26.40;24.17;;;18.40;99.90;;;;;;5011330;28;20656;-72
2022/07/24 03:01:59;;;;;;;25.13;22.97;;;18.30;99.90;;;;;;4999912;28;20179;-72
2022/07/24 03:04:25;;;;;;;24.23;22.30;;;18.30;99.90;;;;;;5012447;28;20203;-72
2022/07/24 03:06:51;;;;;;;25.50;23.47;;;18.40;99.90;;;;;;4993077;28;20275;-72
2022/07/24 03:09:17;;;;;;;36.80;34.00;;;18.30;99.90;;;;;;5010952;28;20249;-73
2022/07/24 03:11:42;;;;;;;102.33;95.93;;;18.30;99.90;;;;;;5011091;28;20219;-72
2022/07/24 03:14:08;;;;;;;135.57;128.00;;;18.20;99.90;;;;;;5011540;28;20203;-72
2022/07/24 03:16:34;;;;;;;93.07;87.37;;;18.10;99.90;;;;;;5011674;28;20211;-72
2022/07/24 03:19:00;;;;;;;244.30;230.47;;;18.10;99.90;;;;;;5010623;28;20180;-72
2022/07/24 03:21:25;;;;;;;274.60;259.50;;;18.10;99.90;;;;;;5010631;28;20179;-72
2022/07/24 03:23:51;;;;;;;264.67;249.63;;;18.10;99.90;;;;;;4993904;28;20674;-72
2022/07/24 03:26:17;;;;;;;220.77;208.67;;;18.10;99.90;;;;;;4994211;28;20179;-72
2022/07/24 03:28:43;;;;;;;251.37;237.43;;;18.10;99.90;;;;;;5010528;28;20184;-72
2022/07/24 03:31:08;;;;;;;244.40;230.70;;;18.00;99.90;;;;;;5011443;28;20564;-72
2022/07/24 03:33:34;;;;;;;201.50;190.37;;;18.00;99.90;;;;;;4993485;28;20191;-73
2022/07/24 03:36:00;;;;;;;199.47;188.80;;;17.90;99.90;;;;;;4993797;28;20322;-72
2022/07/24 03:38:26;;;;;;;126.00;118.67;;;17.80;99.90;;;;;;5010380;28;20653;-72
2022/07/24 03:40:52;;;;;;;85.03;80.00;;;17.70;99.90;;;;;;5011288;28;20204;-72
2022/07/24 03:43:17;;;;;;;56.23;52.53;;;17.60;99.90;;;;;;5011167;28;20563;-72
2022/07/24 03:45:44;;;;;;;42.63;39.80;;;17.70;99.90;;;;;;5011323;28;20296;-72
2022/07/24 03:48:10;;;;;;;30.03;27.83;;;17.70;99.90;;;;;;5010365;28;20183;-73
2022/07/24 03:50:35;;;;;;;39.37;36.13;;;17.70;99.90;;;;;;5010866;28;20184;-73
2022/07/24 03:53:01;;;;;;;59.67;55.77;;;17.70;99.90;;;;;;4993520;28;20659;-73
2022/07/24 03:55:27;;;;;;;44.00;41.07;;;17.70;99.90;;;;;;5029789;23;20249;-73
2022/07/24 03:57:53;;;;;;;39.57;36.93;;;17.80;99.90;;;;;;5010100;28;20207;-73
2022/07/24 04:00:19;;;;;;;31.33;28.83;;;17.70;99.90;;;;;;5011145;28;20541;-73
2022/07/24 04:02:44;;;;;;;58.07;54.37;;;17.80;99.90;;;;;;4981612;28;20640;-73
2022/07/24 04:05:12;;;;;;;67.90;63.50;;;17.80;99.90;;;;;;5012451;28;20715;-72
2022/07/24 04:07:38;;;;;;;69.63;65.47;;;17.80;99.90;;;;;;4994818;28;20192;-72
2022/07/24 04:10:06;;;;;;;69.10;65.10;;;17.80;99.90;;;;;;5013865;28;20270;-72
2022/07/24 04:12:32;;;;;;;59.00;55.27;;;17.90;99.90;;;;;;4996050;28;20287;-72
2022/07/24 04:14:58;;;;;;;50.80;47.37;;;17.90;99.90;;;;;;5014356;28;20206;-72
2022/07/24 04:17:24;;;;;;;38.50;35.93;;;17.90;99.90;;;;;;5013226;28;20258;-72
2022/07/24 04:19:50;;;;;;;55.27;51.57;;;18.00;99.90;;;;;;5014092;28;20184;-73
2022/07/24 04:22:16;;;;;;;51.93;48.67;;;18.00;99.90;;;;;;5014031;28;20184;-73
2022/07/24 04:24:42;;;;;;;63.77;60.07;;;18.10;99.90;;;;;;5014140;28;20583;-73
2022/07/24 04:27:08;;;;;;;52.63;49.27;;;18.10;99.90;;;;;;5012900;28;20183;-74
2022/07/24 04:29:33;;;;;;;72.00;67.70;;;18.20;99.90;;;;;;4996400;28;20600;-73
2022/07/24 04:31:59;;;;;;;82.00;77.10;;;18.30;99.90;;;;;;5013171;28;20196;-73
2022/07/24 04:34:25;;;;;;;55.73;52.30;;;18.30;99.90;;;;;;5013404;28;20202;-73
2022/07/24 04:36:51;;;;;;;39.93;37.10;;;18.40;99.90;;;;;;4995656;28;20216;-73
2022/07/24 04:39:17;;;;;;;46.23;43.13;;;18.40;99.90;;;;;;5013950;28;20176;-73
2022/07/24 04:41:42;;;;;;;46.37;43.20;;;18.40;99.90;;;;;;4995555;28;20695;-72
2022/07/24 04:44:08;;;;;;;53.30;49.70;;;18.50;99.90;;;;;;4995777;28;20195;-73
2022/07/24 04:46:34;;;;;;;51.43;47.67;;;18.60;99.90;;;;;;5013307;28;20187;-73
2022/07/24 04:49:00;;;;;;;96.23;90.47;;;18.70;99.90;;;;;;5012354;28;20187;-73
2022/07/24 04:51:26;;;;;;;132.50;124.90;;;18.70;99.90;;;;;;4996231;28;20183;-73
2022/07/24 04:53:54;;;;;;;108.47;102.17;;;18.80;99.90;;;;;;5013363;28;20258;-73
2022/07/24 04:56:21;;;;;;;128.63;121.43;;;18.80;99.90;;;;;;4995569;28;20273;-73
2022/07/24 04:58:47;;;;;;;198.03;187.13;;;18.80;99.90;;;;;;5012166;28;20168;-72
2022/07/24 05:01:13;;;;;;;213.13;201.50;;;18.90;99.90;;;;;;4996000;28;20553;-73
2022/07/24 05:03:39;;;;;;;326.93;308.97;;;19.00;99.90;;;;;;5012483;28;20175;-73
2022/07/24 05:06:05;;;;;;;219.90;208.03;;;19.20;99.90;;;;;;4995985;28;20664;-73
2022/07/24 05:08:31;;;;;;;97.93;92.23;;;19.40;99.90;;;;;;5012442;28;20702;-73
2022/07/24 05:10:57;;;;;;;59.53;55.53;;;19.60;99.90;;;;;;5012157;28;20195;-73
2022/07/24 05:13:23;;;;;;;21.00;19.25;;;19.80;99.90;;;;;;5012813;28;20812;-73
2022/07/24 05:15:49;;;;;;;69.77;65.67;;;19.90;99.90;;;;;;5012655;28;20219;-73
2022/07/24 05:18:14;;;;;;;66.40;62.45;;;20.30;99.90;;;;;;4993644;28;20187;-73
2022/07/24 05:20:40;;;;;;;30.25;28.08;;;20.60;99.90;;;;;;5013184;28;20189;-73
2022/07/24 05:23:06;;;;;;;127.13;120.30;;;21.10;99.90;;;;;;4995172;28;20229;-73
2022/07/24 05:25:32;;;;;;;271.38;256.83;;;21.50;99.90;;;;;;5012345;28;20208;-73
2022/07/24 05:27:57;;;;;;;75.88;71.07;;;21.90;99.90;;;;;;5011902;28;20191;-73
2022/07/24 05:30:23;;;;;;;31.40;29.15;;;22.00;99.90;;;;;;5012720;28;20187;-73
2022/07/24 05:32:49;;;;;;;18.85;17.40;;;22.10;99.90;;;;;;5012173;28;20180;-74
2022/07/24 05:35:15;;;;;;;41.75;39.08;;;22.30;99.90;;;;;;5012736;28;20214;-72
2022/07/24 05:37:41;;;;;;;32.72;30.50;;;22.60;99.90;;;;;;5011870;28;20211;-72
2022/07/24 05:40:07;;;;;;;24.55;22.70;;;22.80;99.90;;;;;;5011439;28;20262;-71
2022/07/24 05:42:33;;;;;;;19.45;18.05;;;22.80;99.90;;;;;;5012333;28;20180;-70
2022/07/24 05:44:59;;;;;;;14.70;13.40;;;22.90;99.90;;;;;;5012605;28;20199;-72
2022/07/24 05:47:24;;;;;;;14.00;12.68;;;23.40;99.90;;;;;;5011564;28;20233;-72
2022/07/24 05:49:50;;;;;;;13.77;12.57;;;23.70;99.90;;;;;;5012575;28;20179;-72
2022/07/24 05:52:16;;;;;;;15.20;13.88;;;24.00;99.90;;;;;;4995055;28;20211;-72
2022/07/24 05:54:42;;;;;;;15.73;14.25;;;24.30;99.90;;;;;;4993765;28;20257;-72
2022/07/24 05:57:07;;;;;;;13.55;12.27;;;24.50;99.90;;;;;;4994609;28;20211;-73
2022/07/24 05:59:34;;;;;;;25.65;23.80;;;25.00;99.90;;;;;;5012528;28;20195;-73
2022/07/24 06:02:03;;;;;;;25.88;24.00;;;25.50;99.90;;;;;;5011773;28;20736;-73
2022/07/24 06:04:30;;;;;;;17.90;16.65;;;25.50;99.90;;;;;;5011588;28;20215;-73
2022/07/24 06:06:56;;;;;;;17.83;16.10;;;25.10;99.90;;;;;;5011475;28;20197;-71
2022/07/24 06:09:21;;;;;;;18.98;17.48;;;24.90;99.90;;;;;;5008937;28;20628;-72
2022/07/24 06:11:47;;;;;;;20.73;19.33;;;25.00;99.90;;;;;;5011909;28;20389;-72
2022/07/24 06:14:13;;;;;;;20.55;18.95;;;25.30;99.90;;;;;;5012331;28;20560;-71
2022/07/24 06:16:39;;;;;;;40.15;37.55;;;25.40;99.90;;;;;;5012231;28;20688;-73
2022/07/24 06:19:04;;;;;;;48.50;45.58;;;26.00;99.90;;;;;;4994082;28;20640;-72
2022/07/24 06:21:30;;;;;;;54.10;50.78;;;26.40;99.90;;;;;;5011497;28;20215;-72
2022/07/24 06:23:56;;;;;;;55.95;52.85;;;26.40;99.90;;;;;;4994668;28;20203;-72
2022/07/24 06:26:22;;;;;;;58.13;54.38;;;26.20;99.90;;;;;;4994813;28;20183;-72
2022/07/24 06:28:47;;;;;;;62.97;58.90;;;26.40;99.90;;;;;;5010909;28;20295;-71
2022/07/24 06:31:13;;;;;;;69.88;65.90;;;26.60;99.90;;;;;;5012118;28;20324;-73
2022/07/24 06:33:39;;;;;;;36.58;34.10;;;26.60;99.90;;;;;;5012070;28;20191;-73
2022/07/24 06:36:05;;;;;;;29.50;27.60;;;27.10;99.90;;;;;;4994337;28;20567;-73
2022/07/24 06:38:31;;;;;;;25.88;23.75;;;27.20;99.90;;;;;;5011180;28;20210;-73
2022/07/24 06:40:57;;;;;;;16.52;15.23;;;27.30;99.90;;;;;;5012008;28;20644;-72
2022/07/24 06:43:22;;;;;;;17.23;15.70;;;27.80;99.90;;;;;;5011868;28;20191;-72
2022/07/24 06:45:48;;;;;;;20.02;18.65;;;28.10;99.90;;;;;;4994325;28;20199;-72
2022/07/24 06:48:14;;;;;;;16.27;15.00;;;28.10;99.90;;;;;;5010737;28;20571;-72
2022/07/24 06:50:40;;;;;;;17.10;15.73;;;28.30;99.90;;;;;;4974933;28;20184;-72
2022/07/24 06:53:05;;;;;;;15.15;13.95;;;28.10;99.90;;;;;;4992234;28;20207;-72
2022/07/24 06:55:31;;;;;;;12.75;11.65;;;28.30;99.90;;;;;;4974713;28;20290;-70
2022/07/24 06:57:57;;;;;;;14.80;13.52;;;28.70;99.90;;;;;;4991363;28;20185;-73
2022/07/24 07:00:23;;;;;;;20.73;19.30;;;29.20;99.90;;;;;;4974748;28;20176;-73
2022/07/24 07:02:50;;;;;;;25.30;23.63;;;29.40;99.90;;;;;;4981050;28;20184;-71
2022/07/24 07:05:15;;;;;;;27.35;25.55;;;29.90;99.90;;;;;;5011290;28;20242;-72
2022/07/24 07:07:43;;;;;;;16.23;15.00;;;30.10;99.90;;;;;;5010654;28;20187;-71
2022/07/24 07:10:09;;;;;;;19.05;17.55;;;30.30;99.90;;;;;;5011524;28;20207;-71
2022/07/24 07:12:35;;;;;;;17.63;16.33;;;30.50;99.90;;;;;;5011385;28;20636;-72
2022/07/24 07:15:01;;;;;;;11.30;10.32;;;31.10;99.80;;;;;;4993791;28;20695;-72
2022/07/24 07:17:27;;;;;;;10.88;9.98;;;31.30;99.20;;;;;;5010233;28;20221;-71
2022/07/24 07:19:53;;;;;;;10.93;9.82;;;31.10;97.80;;;;;;5011443;28;20176;-72
2022/07/24 07:22:19;;;;;;;10.77;9.70;;;31.00;97.50;;;;;;5011322;28;20182;-72
2022/07/24 07:24:44;;;;;;;11.07;10.18;;;30.90;98.40;;;;;;4994086;28;20261;-72
2022/07/24 07:27:10;;;;;;;10.77;9.98;;;31.10;97.60;;;;;;5010580;28;20263;-72
2022/07/24 07:29:36;;;;;;;10.43;9.60;;;31.00;96.90;;;;;;5011105;28;20606;-71
2022/07/24 07:32:02;;;;;;;10.77;9.98;;;30.70;97.00;;;;;;5011303;28;20199;-73
2022/07/24 07:34:28;;;;;;;12.73;11.45;;;30.70;96.20;;;;;;5011688;28;20286;-72
2022/07/24 07:36:53;;;;;;;10.48;9.57;;;30.70;96.00;;;;;;5011057;28;20246;-72
2022/07/24 07:39:19;;;;;;;11.00;10.18;;;30.60;96.50;;;;;;5011263;28;20603;-72
2022/07/24 07:41:45;;;;;;;12.43;11.27;;;30.40;96.30;;;;;;5013609;28;20903;-72
2022/07/24 07:44:11;;;;;;;11.32;10.15;;;30.50;95.80;;;;;;5014795;28;20568;-74
2022/07/24 07:46:37;;;;;;;14.43;10.90;;;31.00;94.90;;;;;;4997626;28;20190;-76
2022/07/24 07:49:03;;;;;;;11.20;10.30;;;31.80;95.10;;;;;;4996767;28;20558;-75
2022/07/24 07:51:29;;;;;;;13.02;11.70;;;32.20;92.30;;;;;;5015041;28;20184;-74
2022/07/24 07:53:54;;;;;;;10.32;9.43;;;32.10;91.90;;;;;;5015029;28;20212;-74
2022/07/24 07:56:20;;;;;;;9.63;8.73;;;32.30;90.70;;;;;;5016799;28;20249;-75
2022/07/24 07:58:46;;;;;;;9.07;8.38;;;31.90;91.70;;;;;;5014280;28;20180;-75
2022/07/24 08:01:12;;;;;;;11.05;9.98;;;31.80;90.40;;;;;;5014922;28;20188;-76
2022/07/24 08:03:38;;;;;;;10.15;9.32;;;32.00;89.10;;;;;;5014912;28;20202;-76
2022/07/24 08:06:04;;;;;;;10.77;9.88;;;32.20;89.80;;;;;;5015288;28;20652;-75
2022/07/24 08:08:30;;;;;;;13.00;11.68;;;32.60;88.80;;;;;;5015337;28;20184;-74
2022/07/24 08:10:56;;;;;;;18.52;17.17;;;32.80;87.90;;;;;;5015175;28;20689;-74
2022/07/24 08:13:22;;;;;;;14.15;13.05;;;33.00;85.90;;;;;;4997302;28;20207;-76
2022/07/24 08:15:48;;;;;;;13.68;12.63;;;33.20;84.20;;;;;;5014456;28;20245;-77
2022/07/24 08:18:14;;;;;;;12.98;11.98;;;32.90;84.70;;;;;;5014087;28;20733;-76
2022/07/24 08:20:40;;;;;;;17.35;15.95;;;32.60;83.90;;;;;;5014589;28;20573;-76
2022/07/24 08:23:05;;;;;;;28.77;13.60;;;32.40;84.30;;;;;;4996087;28;20778;-76
2022/07/24 08:25:31;;;;;;;12.63;11.77;;;32.40;83.50;;;;;;5014560;28;20203;-76
2022/07/24 08:27:57;;;;;;;12.07;11.05;;;32.20;84.80;;;;;;5013499;28;20652;-76
2022/07/24 08:30:25;;;;;;;14.23;13.15;;;32.30;84.20;;;;;;5014326;28;20219;-76
2022/07/24 08:32:51;;;;;;;12.65;11.68;;;32.30;82.60;;;;;;4992435;28;20177;-78
2022/07/24 08:35:16;;;;;;;15.15;13.93;;;32.50;82.50;;;;;;5022196;28;20203;-78
2022/07/24 08:37:43;;;;;;;15.75;14.52;;;32.80;80.20;;;;;;4997775;28;20184;-78
2022/07/24 08:40:10;;;;;;;16.98;15.85;;;32.90;78.20;;;;;;4995702;28;20264;-79
2022/07/24 08:42:36;;;;;;;12.50;11.50;;;32.50;77.80;;;;;;4994817;28;20180;-78
2022/07/24 08:45:04;;;;;;;11.70;10.85;;;32.50;82.10;;;;;;4996047;28;20251;-78
2022/07/24 08:47:32;;;;;;;15.02;14.02;;;33.10;81.00;;;;;;4996199;28;20177;-78
2022/07/24 08:49:59;;;;;;;15.88;14.77;;;33.70;78.70;;;;;;5000040;28;20644;-78
2022/07/24 08:52:25;;;;;;;11.30;10.50;;;33.50;77.60;;;;;;5014443;28;20175;-78
2022/07/24 08:54:52;;;;;;;14.88;13.88;;;33.00;79.10;;;;;;4998562;28;20688;-78
2022/07/24 08:57:18;;;;;;;14.02;13.02;;;33.10;80.00;;;;;;4998050;28;20219;-78
2022/07/24 08:59:43;;;;;;;13.23;12.18;;;33.50;77.40;;;;;;5015571;28;20569;-77
2022/07/24 09:02:09;;;;;;;11.27;10.38;;;32.70;78.20;;;;;;5005569;28;20179;-77
2022/07/24 09:04:43;;;;;;;11.30;10.32;;;33.00;79.10;;;;;;5022743;28;20214;-78
2022/07/24 09:07:12;;;;;;;12.05;11.18;;;33.30;80.60;;;;;;5018611;28;20187;-79
2022/07/24 09:09:39;;;;;;;11.60;10.50;;;33.30;78.70;;;;;;4999628;28;20606;-77
2022/07/24 09:12:08;;;;;;;11.45;10.45;;;33.50;78.00;;;;;;5015947;28;20184;-78
2022/07/24 09:14:35;;;;;;;13.73;12.60;;;33.60;76.30;;;;;;5017154;28;20299;-77
2022/07/24 09:17:05;;;;;;;12.32;10.98;;;33.60;75.80;;;;;;5014991;28;20203;-78
2022/07/24 09:19:44;;;;;;;16.33;15.13;;;33.80;77.00;;;;;;5015811;28;20186;-78
2022/07/24 09:22:15;;;;;;;19.25;18.15;;;34.30;71.60;;;;;;5015780;28;20233;-78
2022/07/24 09:24:42;;;;;;;145.70;138.35;;;34.60;71.40;;;;;;5028192;28;20204;-77
2022/07/24 09:27:14;;;;;;;141.75;134.23;;;34.80;67.60;;;;;;5024882;28;20187;-77
2022/07/24 09:29:40;;;;;;;70.10;66.45;;;34.20;67.90;;;;;;5020111;28;20188;-78
2022/07/24 09:32:05;;;;;;;54.08;51.22;;;34.40;69.80;;;;;;4999269;28;20176;-78
2022/07/24 09:34:38;;;;;;;32.40;30.33;;;34.60;70.30;;;;;;5015979;28;20226;-78
2022/07/24 09:37:06;;;;;;;111.00;105.07;;;34.50;68.70;;;;;;5014738;28;20750;-78
2022/07/24 09:39:35;;;;;;;96.70;91.82;;;34.70;67.50;;;;;;5015803;28;20760;-78
2022/07/24 09:42:03;;;;;;;9.60;8.68;;;34.10;69.00;;;;;;4997828;28;20179;-77
2022/07/24 09:44:32;;;;;;;11.35;10.55;;;34.20;72.90;;;;;;5017141;28;20200;-77
2022/07/24 09:47:09;;;;;;;34.25;32.28;;;34.90;71.50;;;;;;5009781;28;20188;-77
2022/07/24 09:49:36;;;;;;;32.63;30.42;;;34.90;70.10;;;;;;5018709;28;20182;-78
2022/07/24 09:52:05;;;;;;;66.60;63.15;;;35.20;70.60;;;;;;5014042;28;20184;-78
2022/07/24 09:54:56;;;;;;;280.45;265.95;;;35.80;69.60;;;;;;5023440;23;20230;-78
2022/07/24 09:57:24;;;;;;;488.90;460.80;;;36.30;66.90;;;;;;5036637;28;20219;-78
2022/07/24 09:59:54;;;;;;;466.55;440.15;;;36.00;64.70;;;;;;5037309;28;20186;-78
2022/07/24 10:02:23;;;;;;;554.85;521.60;;;36.10;67.10;;;;;;5036539;28;20256;-78
2022/07/24 10:04:50;;;;;;;551.78;518.58;;;36.40;63.30;;;;;;5034922;28;20195;-78
2022/07/24 10:07:22;;;;;;;442.13;417.65;;;36.60;65.30;;;;;;5034458;28;20178;-76
2022/07/24 10:09:51;;;;;;;383.88;363.25;;;37.10;59.40;;;;;;5037348;28;20278;-77
2022/07/24 10:12:26;;;;;;;416.42;393.70;;;36.60;59.30;;;;;;5038098;28;20545;-78
2022/07/24 10:14:54;;;;;;;438.65;414.42;;;36.70;59.30;;;;;;5034566;28;20681;-78
2022/07/24 10:17:22;;;;;;;474.55;447.70;;;36.70;59.60;;;;;;5035452;28;20206;-77
2022/07/24 10:19:50;;;;;;;507.55;478.10;;;36.40;60.00;;;;;;5035937;28;20203;-77
2022/07/24 10:22:21;;;;;;;519.72;489.55;;;36.40;61.70;;;;;;5035952;28;20193;-77
2022/07/24 10:25:04;;;;;;;492.30;464.30;;;36.80;59.70;;;;;;5035888;28;20195;-77
2022/07/24 10:27:33;;;;;;;482.90;455.25;;;36.80;59.00;;;;;;5037886;28;20175;-78
2022/07/24 10:30:04;;;;;;;421.50;398.48;;;37.00;59.60;;;;;;5034393;28;20643;-78
2022/07/24 10:32:32;;;;;;;324.48;307.60;;;37.40;58.30;;;;;;5034578;28;20201;-77
2022/07/24 10:35:08;;;;;;;177.15;167.43;;;37.60;57.70;;;;;;5035894;28;20221;-78
2022/07/24 10:37:37;;;;;;;277.23;263.10;;;37.20;57.10;;;;;;5034877;28;20557;-78
2022/07/24 10:40:08;;;;;;;184.38;175.05;;;37.30;58.10;;;;;;5035861;28;20210;-78
2022/07/24 10:43:09;;;;;;;75.93;71.80;;;38.10;57.00;;;;;;5034311;28;20702;-78
2022/07/24 10:45:36;;;;;;;104.57;99.38;;;38.20;54.70;;;;;;5036095;28;20226;-78
2022/07/24 10:48:20;;;;;;;108.82;103.35;;;37.90;52.90;;;;;;5034954;28;20190;-78
2022/07/24 10:51:00;;;;;;;105.78;100.38;;;38.50;53.00;;;;;;5034572;28;20182;-78
2022/07/24 10:53:40;;;;;;;93.72;89.07;;;38.50;52.50;;;;;;5033220;28;20191;-77
2022/07/24 10:56:27;;;;;;;110.57;105.05;;;38.80;54.10;;;;;;5030494;28;20206;-77
2022/07/24 10:58:59;;;;;;;95.90;91.05;;;38.70;53.60;;;;;;5034038;28;20178;-78
2022/07/24 11:01:30;;;;;;;50.85;48.17;;;38.80;52.50;;;;;;5034816;28;20270;-77
2022/07/24 11:03:58;;;;;;;72.78;68.88;;;38.70;50.90;;;;;;5035194;28;20214;-77
2022/07/24 11:06:42;;;;;;;21.17;19.75;;;38.90;52.40;;;;;;5031154;28;20831;-74
2022/07/24 11:09:08;;;;;;;36.30;34.22;;;38.50;51.30;;;;;;5030818;28;20187;-74
2022/07/24 11:11:41;;;;;;;33.20;31.23;;;38.70;50.70;;;;;;5031354;28;20197;-74
2022/07/24 11:14:07;;;;;;;1999.90;924.17;;;39.00;49.90;;;;;;5031738;28;20190;-73
2022/07/24 11:16:34;;;;;;;527.05;208.45;;;39.10;49.70;;;;;;5048988;28;20211;-83
2022/07/24 11:19:00;;;;;;;1508.00;510.38;;;39.20;49.70;;;;;;5017603;28;20564;-80
2022/07/24 11:21:42;;;;;;;505.73;354.05;;;39.60;49.60;;;;;;5031865;28;20186;-79
2022/07/24 11:24:13;;;;;;;916.33;454.95;;;40.30;48.80;;;;;;5027466;28;20193;-83
2022/07/24 11:27:00;;;;;;;171.90;93.65;;;40.10;49.10;;;;;;5038300;28;20175;-80
2022/07/24 11:29:34;;;;;;;12.60;11.55;;;39.70;47.20;;;;;;5027103;28;20209;-77
2022/07/24 11:32:07;;;;;;;10.95;10.15;;;39.30;46.50;;;;;;5032161;28;20182;-77
2022/07/24 11:34:35;;;;;;;10.13;9.43;;;38.90;49.20;;;;;;5034397;28;20244;-79
2022/07/24 11:37:02;;;;;;;10.60;9.85;;;39.20;48.00;;;;;;5035198;28;20194;-83
2022/07/24 11:39:34;;;;;;;16.75;12.70;;;39.50;48.10;;;;;;5034607;28;20187;-77
2022/07/24 11:42:02;;;;;;;22.13;14.55;;;40.00;46.10;;;;;;5024829;28;20211;-79
2022/07/24 11:44:34;;;;;;;7.82;7.28;;;40.10;48.30;;;;;;5030868;28;20203;-80
2022/07/24 11:47:06;;;;;;;7.25;6.55;;;40.30;48.00;;;;;;5039041;28;20182;-79
2022/07/24 11:49:47;;;;;;;8.07;7.25;;;39.50;47.90;;;;;;5053174;28;20222;-78
2022/07/24 11:52:20;;;;;;;7.97;7.22;;;39.10;48.40;;;;;;5034208;28;20190;-80
2022/07/24 11:54:49;;;;;;;21.95;14.90;;;39.80;48.20;;;;;;5032289;28;20273;-78
2022/07/24 11:57:24;;;;;;;7.95;7.13;;;39.70;47.00;;;;;;5034765;28;20206;-79
2022/07/24 11:59:51;;;;;;;15.57;9.80;;;39.10;46.70;;;;;;5012638;28;20536;-80
2022/07/24 12:02:18;;;;;;;10.10;7.15;;;39.10;47.10;;;;;;5011977;28;20183;-79
2022/07/24 12:04:45;;;;;;;10.15;9.15;;;39.50;46.40;;;;;;5021311;28;20203;-80
2022/07/24 12:07:14;;;;;;;8.95;7.95;;;39.50;47.00;;;;;;5031606;28;20669;-79
2022/07/24 12:10:00;;;;;;;9.25;8.30;;;39.70;45.90;;;;;;5046530;28;20194;-81
2022/07/24 12:12:35;;;;;;;7.03;6.35;;;39.30;46.10;;;;;;5032580;28;20970;-80
2022/07/24 12:15:08;;;;;;;8.80;7.97;;;40.00;46.60;;;;;;5032865;28;20202;-79
2022/07/24 12:17:55;;;;;;;8.85;7.95;;;40.90;45.60;;;;;;5035875;28;20202;-78
2022/07/24 12:20:35;;;;;;;7.68;6.97;;;41.40;44.30;;;;;;5019904;28;20640;-80
2022/07/24 12:23:04;;;;;;;7.85;7.03;;;41.30;42.80;;;;;;5018980;28;20518;-77
2022/07/24 12:25:30;;;;;;;7.88;7.15;;;41.00;43.50;;;;;;5013802;28;20200;-80